createdAt,value
2018-02-27T00:01:53.202Z,9.33
2018-02-27T00:04:19.194Z,11.43
2018-02-27T00:06:45.341Z,9.90
2018-02-27T00:09:11.370Z,9.70
2018-02-27T00:11:37.381Z,12.30
2018-02-27T00:14:03.457Z,11.17
2018-02-27T00:16:29.453Z,9.90
2018-02-27T00:18:55.498Z,8.90
2018-02-27T00:21:21.517Z,11.60
2018-02-27T00:23:47.617Z,10.87
2018-02-27T00:26:13.680Z,8.73
2018-02-27T00:28:39.708Z,11.37
2018-02-27T00:31:05.774Z,7.60
2018-02-27T00:33:31.769Z,10.60
2018-02-27T00:35:57.770Z,10.97
2018-02-27T00:38:23.809Z,9.10
2018-02-27T00:40:49.814Z,8.10
2018-02-27T00:43:15.818Z,10.23
2018-02-27T00:45:41.824Z,9.90
2018-02-27T00:48:07.859Z,10.73
2018-02-27T00:50:33.890Z,9.83
2018-02-27T00:52:59.954Z,8.23
2018-02-27T00:55:26.040Z,10.80
2018-02-27T00:57:52.044Z,10.07
2018-02-27T01:00:18.083Z,7.03
2018-02-27T01:02:44.113Z,8.80
2018-02-27T01:05:10.165Z,7.93
2018-02-27T01:07:36.173Z,10.63
2018-02-27T01:10:02.250Z,5.50
2018-02-27T01:12:28.202Z,7.30
2018-02-27T01:14:54.230Z,8.43
2018-02-27T01:17:20.310Z,10.07
2018-02-27T01:19:46.298Z,9.10
2018-02-27T01:22:12.205Z,8.67
2018-02-27T01:24:38.157Z,9.50
2018-02-27T01:27:04.165Z,9.10
2018-02-27T01:29:30.177Z,8.93
2018-02-27T01:31:56.181Z,10.10
2018-02-27T01:34:22.238Z,9.20
2018-02-27T01:36:48.214Z,10.20
2018-02-27T01:39:14.225Z,9.70
2018-02-27T01:41:40.262Z,10.53
2018-02-27T01:44:06.332Z,7.80
2018-02-27T01:46:32.354Z,7.87
2018-02-27T01:48:58.369Z,10.43
2018-02-27T01:51:24.366Z,7.53
2018-02-27T01:53:50.369Z,11.40
2018-02-27T01:56:16.478Z,8.13
2018-02-27T01:58:42.499Z,8.50
2018-02-27T02:01:08.524Z,9.33
2018-02-27T02:03:34.565Z,10.30
2018-02-27T02:06:00.562Z,11.90
2018-02-27T02:08:26.486Z,7.20
2018-02-27T02:10:52.534Z,9.83
2018-02-27T02:13:18.554Z,9.80
2018-02-27T02:15:44.564Z,10.23
2018-02-27T02:18:10.602Z,8.97
2018-02-27T02:20:36.686Z,7.77
2018-02-27T02:23:02.709Z,11.13
2018-02-27T02:25:28.680Z,11.40
2018-02-27T02:27:54.809Z,12.47
2018-02-27T02:30:20.877Z,13.77
2018-02-27T02:32:46.948Z,10.60
2018-02-27T02:35:13.057Z,11.40
2018-02-27T02:37:39.206Z,8.20
2018-02-27T02:40:05.255Z,9.53
2018-02-27T02:42:31.277Z,9.70
2018-02-27T02:44:57.304Z,11.50
2018-02-27T02:47:23.354Z,7.73
2018-02-27T02:49:49.428Z,7.60
2018-02-27T02:52:16.313Z,10.53
2018-02-27T02:54:42.293Z,9.90
2018-02-27T02:57:08.289Z,8.50
2018-02-27T02:59:34.256Z,11.03
2018-02-27T03:02:00.278Z,5.93
2018-02-27T03:04:26.300Z,11.37
2018-02-27T03:06:52.307Z,5.63
2018-02-27T03:09:18.342Z,10.10
2018-02-27T03:11:44.348Z,7.83
2018-02-27T03:14:10.362Z,7.73
2018-02-27T03:16:36.390Z,12.20
2018-02-27T03:19:02.466Z,8.80
2018-02-27T03:21:28.494Z,9.13
2018-02-27T03:23:54.503Z,9.13
2018-02-27T03:26:20.469Z,9.77
2018-02-27T03:28:46.399Z,7.47
2018-02-27T03:31:12.409Z,12.10
2018-02-27T03:33:38.421Z,10.27
2018-02-27T03:36:04.466Z,7.77
2018-02-27T03:38:30.470Z,9.43
2018-02-27T03:40:56.450Z,9.93
2018-02-27T03:43:22.520Z,12.00
2018-02-27T03:45:48.542Z,9.67
2018-02-27T03:48:14.576Z,8.03
2018-02-27T03:50:40.578Z,9.93
2018-02-27T03:53:06.613Z,10.87
2018-02-27T03:55:32.659Z,8.47
2018-02-27T03:57:58.662Z,11.73
2018-02-27T04:00:24.696Z,13.50
2018-02-27T04:02:50.721Z,8.60
2018-02-27T04:05:16.766Z,6.17
2018-02-27T04:07:42.769Z,10.50
2018-02-27T04:10:08.800Z,11.90
2018-02-27T04:12:34.842Z,11.03
2018-02-27T04:15:00.826Z,15.77
2018-02-27T04:17:26.802Z,10.30
2018-02-27T04:19:52.859Z,11.50
2018-02-27T04:22:18.968Z,9.47
2018-02-27T04:24:45.026Z,12.03
2018-02-27T04:27:11.043Z,8.07
2018-02-27T04:29:36.977Z,13.40
2018-02-27T04:32:02.938Z,11.53
2018-02-27T04:34:29.043Z,11.13
2018-02-27T04:36:55.062Z,12.13
2018-02-27T04:39:21.123Z,11.40
2018-02-27T04:41:47.157Z,10.60
2018-02-27T04:44:13.150Z,9.00
2018-02-27T04:46:39.162Z,10.00
2018-02-27T04:49:05.284Z,11.53
2018-02-27T04:51:31.381Z,13.67
2018-02-27T04:53:57.421Z,10.13
2018-02-27T04:56:23.449Z,11.10
2018-02-27T04:58:49.525Z,12.33
2018-02-27T05:01:15.539Z,11.60
2018-02-27T05:03:41.592Z,11.90
2018-02-27T05:06:07.658Z,11.73
2018-02-27T05:08:33.748Z,11.97
2018-02-27T05:10:59.742Z,10.03
2018-02-27T05:13:25.833Z,13.63
2018-02-27T05:15:51.884Z,11.40
2018-02-27T05:18:17.879Z,12.40
2018-02-27T05:20:45.235Z,9.23
2018-02-27T05:23:11.256Z,9.17
2018-02-27T05:25:37.350Z,11.73
2018-02-27T05:28:03.404Z,11.53
2018-02-27T05:30:29.614Z,14.77
2018-02-27T05:32:55.712Z,6.57
2018-02-27T05:35:21.815Z,11.77
2018-02-27T05:37:47.857Z,8.10
2018-02-27T05:40:13.834Z,9.90
2018-02-27T05:42:39.877Z,12.70
2018-02-27T05:45:05.880Z,12.43
2018-02-27T05:47:31.925Z,9.90
2018-02-27T05:49:57.990Z,14.03
2018-02-27T05:52:24.026Z,9.77
2018-02-27T05:54:50.080Z,12.03
2018-02-27T05:57:16.056Z,13.47
2018-02-27T05:59:42.066Z,8.50
2018-02-27T06:02:08.074Z,13.27
2018-02-27T06:04:34.053Z,8.03
2018-02-27T06:07:00.146Z,14.60
2018-02-27T06:09:26.128Z,11.50
2018-02-27T06:11:52.194Z,8.57
2018-02-27T06:14:18.234Z,10.50
2018-02-27T06:16:44.272Z,11.10
2018-02-27T06:19:17.357Z,13.23
2018-02-27T06:21:43.349Z,8.93
2018-02-27T06:24:09.486Z,10.67
2018-02-27T06:26:35.474Z,12.67
2018-02-27T06:29:01.482Z,11.67
2018-02-27T06:31:27.515Z,13.50
2018-02-27T06:33:53.570Z,14.43
2018-02-27T06:36:19.653Z,10.10
2018-02-27T06:38:45.710Z,11.77
2018-02-27T06:41:11.732Z,11.60
2018-02-27T06:43:37.757Z,8.10
2018-02-27T06:46:03.825Z,10.10
2018-02-27T06:48:29.894Z,11.00
2018-02-27T06:50:56.500Z,13.53
2018-02-27T06:53:22.545Z,9.87
2018-02-27T06:55:48.674Z,5.57
2018-02-27T06:58:14.698Z,11.80
2018-02-27T07:00:40.714Z,9.90
2018-02-27T07:03:06.923Z,13.93
2018-02-27T07:05:32.929Z,11.67
2018-02-27T07:07:59.045Z,12.13
2018-02-27T07:10:25.066Z,7.47
2018-02-27T07:12:51.066Z,11.50
2018-02-27T07:15:17.097Z,8.83
2018-02-27T07:17:43.121Z,13.20
2018-02-27T07:20:09.161Z,9.90
2018-02-27T07:22:35.189Z,11.53
2018-02-27T07:25:01.234Z,13.77
2018-02-27T07:27:27.224Z,13.60
2018-02-27T07:29:53.212Z,7.97
2018-02-27T07:32:19.223Z,13.30
2018-02-27T07:34:45.245Z,14.70
2018-02-27T07:37:11.358Z,18.97
2018-02-27T07:39:37.416Z,11.80
2018-02-27T07:42:03.446Z,12.07
2018-02-27T07:44:29.532Z,10.93
2018-02-27T07:46:55.549Z,17.30
2018-02-27T07:49:21.570Z,12.07
2018-02-27T07:51:47.593Z,12.50
2018-02-27T07:54:13.567Z,14.00
2018-02-27T07:56:39.601Z,9.77
2018-02-27T07:59:05.601Z,14.33
2018-02-27T08:01:31.642Z,15.00
2018-02-27T08:03:57.706Z,16.50
2018-02-27T08:06:23.776Z,15.60
2018-02-27T08:08:49.862Z,10.60
2018-02-27T08:11:15.902Z,14.40
2018-02-27T08:13:41.939Z,10.67
2018-02-27T08:16:07.944Z,13.10
2018-02-27T08:18:33.932Z,13.73
2018-02-27T08:20:59.965Z,17.57
2018-02-27T08:23:26.020Z,13.20
2018-02-27T08:25:52.022Z,15.63
2018-02-27T08:28:18.041Z,9.13
2018-02-27T08:30:44.118Z,15.20
2018-02-27T08:33:10.121Z,10.93
2018-02-27T08:35:36.144Z,4.63
2018-02-27T08:38:02.154Z,12.27
2018-02-27T08:40:28.302Z,7.37
2018-02-27T08:42:54.375Z,12.00
2018-02-27T08:45:20.407Z,8.70
2018-02-27T08:47:50.168Z,12.57
2018-02-27T08:50:16.155Z,10.10
2018-02-27T08:52:42.190Z,12.63
2018-02-27T08:55:08.169Z,10.77
2018-02-27T08:57:34.267Z,8.17
2018-02-27T09:00:00.325Z,7.73
2018-02-27T09:02:26.381Z,12.30
2018-02-27T09:04:52.392Z,14.07
2018-02-27T09:07:18.473Z,14.87
2018-02-27T09:09:44.489Z,13.23
2018-02-27T09:12:10.504Z,7.00
2018-02-27T09:14:36.489Z,10.83
2018-02-27T09:17:02.473Z,13.50
2018-02-27T09:19:28.493Z,8.57
2018-02-27T09:21:54.537Z,10.53
2018-02-27T09:24:20.577Z,13.00
2018-02-27T09:26:46.641Z,12.10
2018-02-27T09:29:12.750Z,11.80
2018-02-27T09:31:38.741Z,9.90
2018-02-27T09:34:04.754Z,9.17
2018-02-27T09:36:30.799Z,9.27
2018-02-27T09:38:56.805Z,13.67
2018-02-27T09:41:22.817Z,12.20
2018-02-27T09:43:48.826Z,9.03
2018-02-27T09:46:14.845Z,12.00
2018-02-27T09:48:40.874Z,11.27
2018-02-27T09:51:07.706Z,13.53
2018-02-27T09:53:33.718Z,16.13
2018-02-27T09:55:59.733Z,11.07
2018-02-27T09:58:25.786Z,11.07
2018-02-27T10:00:51.805Z,11.27
2018-02-27T10:03:17.857Z,13.80
2018-02-27T10:08:16.602Z,12.17
2018-02-27T10:10:42.613Z,12.67
2018-02-27T10:13:08.660Z,13.37
2018-02-27T10:15:34.637Z,14.33
2018-02-27T10:18:00.656Z,13.03
2018-02-27T10:20:26.618Z,12.37
2018-02-27T10:22:52.721Z,12.97
2018-02-27T10:25:18.724Z,9.83
2018-02-27T10:27:44.761Z,14.33
2018-02-27T10:30:10.810Z,7.63
2018-02-27T10:32:36.812Z,15.90
2018-02-27T10:35:03.010Z,10.87
2018-02-27T10:37:29.006Z,9.70
2018-02-27T10:39:55.495Z,10.53
2018-02-27T10:42:21.593Z,13.27
2018-02-27T10:44:47.610Z,10.67
2018-02-27T10:47:13.692Z,11.77
2018-02-27T10:49:40.109Z,13.20
2018-02-27T10:52:06.094Z,11.33
2018-02-27T10:54:32.325Z,10.60
2018-02-27T10:56:58.366Z,13.60
2018-02-27T10:59:24.415Z,8.70
2018-02-27T11:01:55.443Z,13.70
2018-02-27T11:04:21.553Z,9.80
2018-02-27T11:06:47.570Z,7.47
2018-02-27T11:09:13.612Z,12.00
2018-02-27T11:11:39.749Z,11.20
2018-02-27T11:14:05.821Z,10.53
2018-02-27T11:16:31.840Z,12.30
2018-02-27T11:18:58.006Z,10.87
2018-02-27T11:21:23.992Z,10.83
2018-02-27T11:23:50.065Z,10.33
2018-02-27T11:26:16.143Z,11.67
2018-02-27T11:28:42.184Z,8.23
2018-02-27T11:31:08.234Z,7.67
2018-02-27T11:33:34.261Z,10.80
2018-02-27T11:36:00.304Z,10.60
2018-02-27T11:38:26.290Z,7.77
2018-02-27T11:40:52.343Z,12.93
2018-02-27T11:43:18.378Z,12.87
2018-02-27T11:45:44.317Z,10.90
2018-02-27T11:48:10.358Z,11.00
2018-02-27T11:50:36.381Z,10.93
2018-02-27T11:53:02.461Z,9.20
2018-02-27T11:55:28.468Z,11.33
2018-02-27T11:57:54.476Z,9.50
2018-02-27T12:00:20.527Z,7.80
2018-02-27T12:02:46.522Z,8.77
2018-02-27T12:05:12.529Z,9.80
2018-02-27T12:07:38.520Z,10.30
2018-02-27T12:10:04.533Z,10.03
2018-02-27T12:12:30.606Z,8.80
2018-02-27T12:14:56.562Z,10.73
2018-02-27T12:17:22.596Z,10.77
2018-02-27T12:19:48.601Z,9.27
2018-02-27T12:22:14.657Z,10.53
2018-02-27T12:24:40.639Z,11.07
2018-02-27T12:27:06.681Z,11.50
2018-02-27T12:29:32.678Z,10.40
2018-02-27T12:31:59.811Z,12.13
2018-02-27T12:34:25.852Z,10.67
2018-02-27T12:36:51.926Z,10.90
2018-02-27T12:39:17.966Z,10.63
2018-02-27T12:41:43.944Z,9.73
2018-02-27T12:44:09.997Z,8.97
2018-02-27T12:46:36.036Z,9.93
2018-02-27T12:49:02.074Z,10.00
2018-02-27T12:51:28.160Z,7.97
2018-02-27T12:53:54.170Z,10.40
2018-02-27T12:56:20.216Z,9.97
2018-02-27T12:58:46.212Z,11.00
2018-02-27T13:01:12.333Z,7.93
2018-02-27T13:03:38.349Z,10.07
2018-02-27T13:06:04.396Z,11.20
2018-02-27T13:08:30.440Z,10.80
2018-02-27T13:10:56.432Z,11.50
2018-02-27T13:13:22.450Z,11.27
2018-02-27T13:15:48.470Z,9.37
2018-02-27T13:18:14.551Z,11.07
2018-02-27T13:20:40.605Z,10.70
2018-02-27T13:23:06.581Z,8.43
2018-02-27T13:25:32.640Z,9.77
2018-02-27T13:27:58.651Z,10.03
2018-02-27T13:30:24.694Z,10.03
2018-02-27T13:32:50.714Z,9.60
2018-02-27T13:35:16.753Z,10.20
2018-02-27T13:37:42.813Z,9.27
2018-02-27T13:40:08.806Z,9.27
2018-02-27T13:42:34.792Z,9.17
2018-02-27T13:45:00.856Z,9.30
2018-02-27T13:47:26.898Z,10.13
2018-02-27T13:49:52.913Z,7.83
2018-02-27T13:52:19.021Z,10.73
2018-02-27T13:54:44.973Z,9.80
2018-02-27T13:57:10.969Z,10.10
2018-02-27T13:59:36.991Z,9.40
2018-02-27T14:02:02.970Z,9.73
2018-02-27T14:04:29.005Z,8.20
2018-02-27T14:06:55.013Z,9.90
2018-02-27T14:09:21.048Z,10.20
2018-02-27T14:11:47.062Z,11.20
2018-02-27T14:14:13.037Z,9.83
2018-02-27T14:16:39.059Z,9.83
2018-02-27T14:19:05.139Z,10.70
2018-02-27T14:21:31.183Z,9.10
2018-02-27T14:23:57.273Z,8.60
2018-02-27T14:26:23.264Z,8.70
2018-02-27T14:28:49.293Z,11.43
2018-02-27T14:31:15.356Z,9.70
2018-02-27T14:33:41.388Z,11.83
2018-02-27T14:36:07.462Z,9.80
2018-02-27T14:38:33.530Z,8.93
2018-02-27T14:40:59.566Z,9.10
2018-02-27T14:43:25.621Z,8.87
2018-02-27T14:45:51.697Z,7.70
2018-02-27T14:48:17.801Z,11.83
2018-02-27T14:50:43.799Z,8.90
2018-02-27T14:53:09.806Z,13.77
2018-02-27T14:55:35.905Z,10.53
2018-02-27T14:58:02.307Z,11.03
2018-02-27T15:00:36.054Z,14.73
2018-02-27T15:03:02.121Z,20.53
2018-02-27T15:05:28.146Z,12.57
2018-02-27T15:07:54.145Z,16.13
2018-02-27T15:10:20.190Z,13.70
2018-02-27T15:12:46.217Z,10.53
2018-02-27T15:15:12.234Z,12.33
2018-02-27T15:17:38.281Z,11.70
2018-02-27T15:20:04.382Z,11.77
2018-02-27T15:22:30.433Z,9.30
2018-02-27T15:24:56.453Z,10.10
2018-02-27T15:27:22.502Z,10.57
2018-02-27T15:29:48.545Z,9.90
2018-02-27T15:32:14.614Z,12.13
2018-02-27T15:34:40.673Z,8.77
2018-02-27T15:37:06.681Z,9.30
2018-02-27T15:39:32.930Z,9.47
2018-02-27T15:41:58.962Z,9.20
2018-02-27T15:44:24.984Z,7.90
2018-02-27T15:46:50.992Z,8.50
2018-02-27T15:49:17.151Z,8.27
2018-02-27T15:51:43.178Z,8.00
2018-02-27T15:54:09.521Z,8.13
2018-02-27T15:56:35.615Z,7.27
2018-02-27T15:59:01.639Z,8.43
2018-02-27T16:01:28.571Z,8.93
2018-02-27T16:03:54.526Z,9.00
2018-02-27T16:06:20.536Z,7.63
2018-02-27T16:08:46.558Z,9.60
2018-02-27T16:11:12.557Z,11.00
2018-02-27T16:13:38.562Z,8.47
2018-02-27T16:16:04.554Z,11.57
2018-02-27T16:18:30.687Z,8.00
2018-02-27T16:20:56.705Z,10.80
2018-02-27T16:23:22.728Z,9.87
2018-02-27T16:25:48.746Z,12.90
2018-02-27T16:28:14.772Z,11.37
2018-02-27T16:30:40.869Z,9.50
2018-02-27T16:33:06.874Z,10.57
2018-02-27T16:35:32.882Z,11.37
2018-02-27T16:37:58.876Z,11.40
2018-02-27T16:40:24.912Z,10.40
2018-02-27T16:42:50.966Z,10.30
2018-02-27T16:45:16.989Z,11.20
2018-02-27T16:47:43.092Z,11.23
2018-02-27T16:50:09.053Z,13.30
2018-02-27T16:52:35.065Z,12.13
2018-02-27T16:55:01.095Z,9.77
2018-02-27T16:57:27.144Z,14.77
2018-02-27T16:59:53.161Z,13.60
2018-02-27T17:02:19.193Z,10.97
2018-02-27T17:04:45.240Z,12.20
2018-02-27T17:07:11.277Z,13.40
2018-02-27T17:09:37.294Z,11.47
2018-02-27T17:12:09.409Z,13.40
2018-02-27T17:14:35.450Z,13.20
2018-02-27T17:17:01.487Z,13.47
2018-02-27T17:19:27.503Z,15.00
2018-02-27T17:21:53.564Z,14.63
2018-02-27T17:24:19.567Z,14.27
2018-02-27T17:26:45.591Z,12.90
2018-02-27T17:29:11.620Z,12.93
2018-02-27T17:31:37.650Z,10.30
2018-02-27T17:34:03.754Z,13.97
2018-02-27T17:36:29.738Z,12.60
2018-02-27T17:38:55.747Z,13.30
2018-02-27T17:41:21.780Z,15.80
2018-02-27T17:43:47.813Z,12.90
2018-02-27T17:46:13.839Z,12.40
2018-02-27T17:48:39.890Z,15.37
2018-02-27T17:51:06.023Z,17.10
2018-02-27T17:53:32.105Z,15.17
2018-02-27T17:55:58.120Z,16.53
2018-02-27T17:58:24.116Z,17.03
2018-02-27T18:00:50.167Z,19.30
2018-02-27T18:03:16.189Z,17.07
2018-02-27T18:05:42.197Z,18.00
2018-02-27T18:08:08.276Z,18.17
2018-02-27T18:10:34.299Z,18.27
2018-02-27T18:13:00.373Z,16.30
2018-02-27T18:15:26.444Z,18.23
2018-02-27T18:17:52.402Z,14.93
2018-02-27T18:20:18.478Z,18.80
2018-02-27T18:22:44.474Z,17.40
2018-02-27T18:25:10.645Z,17.17
2018-02-27T18:27:36.633Z,16.63
2018-02-27T18:30:02.930Z,15.57
2018-02-27T18:32:28.974Z,15.50
2018-02-27T18:34:55.005Z,16.33
2018-02-27T18:37:21.004Z,16.87
2018-02-27T18:39:47.033Z,15.03
2018-02-27T18:42:13.006Z,16.83
2018-02-27T18:44:39.014Z,15.17
2018-02-27T18:47:05.022Z,18.80
2018-02-27T18:49:31.066Z,13.93
2018-02-27T18:51:57.075Z,17.70
2018-02-27T18:54:23.094Z,17.57
2018-02-27T18:56:49.086Z,15.70
2018-02-27T18:59:15.090Z,14.80
2018-02-27T19:01:41.089Z,14.70
2018-02-27T19:04:07.140Z,17.47
2018-02-27T19:06:33.162Z,16.40
2018-02-27T19:08:59.197Z,13.47
2018-02-27T19:11:25.202Z,14.37
2018-02-27T19:13:51.217Z,13.20
2018-02-27T19:16:17.232Z,16.70
2018-02-27T19:18:43.281Z,16.87
2018-02-27T19:21:09.314Z,16.37
2018-02-27T19:23:35.316Z,15.87
2018-02-27T19:26:01.327Z,15.10
2018-02-27T19:28:27.326Z,15.43
2018-02-27T19:30:53.343Z,16.93
2018-02-27T19:33:19.389Z,17.30
2018-02-27T19:35:45.402Z,17.90
2018-02-27T19:38:11.480Z,15.30
2018-02-27T19:40:37.532Z,16.40
2018-02-27T19:43:03.556Z,16.17
2018-02-27T19:45:29.581Z,14.90
2018-02-27T19:47:55.614Z,14.30
2018-02-27T19:50:21.660Z,15.10
2018-02-27T19:52:47.688Z,16.20
2018-02-27T19:55:13.720Z,16.80
2018-02-27T19:57:39.789Z,14.40
2018-02-27T20:00:05.799Z,12.27
2018-02-27T20:02:31.904Z,13.17
2018-02-27T20:04:58.125Z,14.83
2018-02-27T20:07:24.168Z,15.33
2018-02-27T20:09:50.238Z,12.60
2018-02-27T20:12:16.291Z,14.93
2018-02-27T20:14:42.337Z,13.17
2018-02-27T20:17:08.376Z,11.97
2018-02-27T20:19:34.393Z,15.70
2018-02-27T20:22:00.329Z,14.37
2018-02-27T20:24:26.451Z,12.90
2018-02-27T20:26:52.513Z,13.47
2018-02-27T20:29:20.582Z,15.10
2018-02-27T20:31:46.692Z,14.47
2018-02-27T20:34:12.795Z,10.93
2018-02-27T20:36:38.753Z,11.03
2018-02-27T20:39:10.895Z,13.20
2018-02-27T20:41:37.025Z,14.83
2018-02-27T20:44:03.063Z,13.63
2018-02-27T20:46:29.091Z,16.27
2018-02-27T20:48:55.112Z,13.77
2018-02-27T20:51:21.142Z,14.63
2018-02-27T20:53:47.105Z,12.40
2018-02-27T20:56:13.106Z,14.67
2018-02-27T20:58:39.253Z,15.00
2018-02-27T21:01:05.319Z,14.80
2018-02-27T21:03:31.323Z,18.23
2018-02-27T21:05:57.318Z,18.90
2018-02-27T21:08:23.333Z,21.23
2018-02-27T21:10:50.086Z,25.80
2018-02-27T21:13:16.517Z,24.47
2018-02-27T21:15:42.593Z,26.87
2018-02-27T21:18:08.673Z,20.30
2018-02-27T21:20:34.800Z,21.60
2018-02-27T21:23:00.854Z,17.27
2018-02-27T21:25:26.898Z,16.90
2018-02-27T21:27:52.977Z,13.87
2018-02-27T21:30:19.129Z,17.60
2018-02-27T21:32:45.292Z,15.90
2018-02-27T21:35:11.392Z,15.50
2018-02-27T21:37:37.389Z,19.63
2018-02-27T21:40:03.454Z,21.47
2018-02-27T21:42:29.443Z,17.87
2018-02-27T21:44:55.500Z,21.60
2018-02-27T21:47:21.829Z,19.30
2018-02-27T21:49:47.855Z,17.40
2018-02-27T21:52:13.899Z,17.33
2018-02-27T21:54:39.916Z,19.27
2018-02-27T21:57:05.982Z,16.40
2018-02-27T21:59:31.935Z,16.83
2018-02-27T22:01:57.947Z,13.40
2018-02-27T22:04:23.996Z,12.17
2018-02-27T22:06:57.018Z,15.30
2018-02-27T22:09:23.093Z,11.63
2018-02-27T22:11:49.129Z,12.23
2018-02-27T22:14:15.205Z,12.47
2018-02-27T22:16:41.215Z,12.90
2018-02-27T22:19:07.202Z,10.53
2018-02-27T22:21:33.296Z,12.83
2018-02-27T22:23:59.314Z,13.80
2018-02-27T22:26:25.409Z,11.17
2018-02-27T22:28:51.427Z,12.23
2018-02-27T22:31:17.422Z,13.03
2018-02-27T22:33:43.448Z,12.47
2018-02-27T22:36:09.406Z,11.33
2018-02-27T22:38:35.425Z,12.80
2018-02-27T22:41:01.453Z,12.77
2018-02-27T22:43:27.492Z,14.00
2018-02-27T22:45:53.514Z,12.73
2018-02-27T22:48:19.580Z,12.60
2018-02-27T22:50:45.613Z,13.03
2018-02-27T22:53:11.646Z,12.30
2018-02-27T22:55:37.732Z,14.03
2018-02-27T22:58:03.737Z,14.03
2018-02-27T23:00:38.817Z,12.83
2018-02-27T23:03:04.850Z,13.33
2018-02-27T23:05:30.897Z,13.13
2018-02-27T23:07:56.929Z,12.60
2018-02-27T23:10:22.953Z,13.17
2018-02-27T23:12:49.078Z,12.47
2018-02-27T23:15:15.090Z,13.30
2018-02-27T23:17:41.097Z,13.30
2018-02-27T23:20:07.127Z,14.67
2018-02-27T23:22:33.189Z,13.30
2018-02-27T23:25:17.478Z,13.13
2018-02-27T23:27:44.614Z,15.30
2018-02-27T23:30:11.323Z,16.50
2018-02-27T23:32:38.702Z,16.80
2018-02-27T23:35:06.050Z,12.30
2018-02-27T23:37:32.198Z,15.77
2018-02-27T23:39:58.252Z,18.07
2018-02-27T23:42:24.238Z,16.43
2018-02-27T23:44:50.240Z,15.63
2018-02-27T23:47:16.253Z,16.90
2018-02-27T23:49:42.274Z,15.30
2018-02-27T23:52:08.276Z,14.60
2018-02-27T23:54:34.365Z,16.83
2018-02-27T23:57:00.780Z,15.73
2018-02-27T23:59:26.763Z,15.93
